sensor_id;sensor_type;location;lat;lon;timestamp;temperature;humidity
59148;DHT22;44930;52.878;6.168;2022-09-17T00:02:20;11.20;99.90
59148;DHT22;44930;52.878;6.168;2022-09-17T00:04:47;11.30;99.90
59148;DHT22;44930;52.878;6.168;2022-09-17T00:07:13;11.20;99.90
59148;DHT22;44930;52.878;6.168;2022-09-17T00:09:39;11.40;99.90
59148;DHT22;44930;52.878;6.168;2022-09-17T00:12:04;11.10;99.90
59148;DHT22;44930;52.878;6.168;2022-09-17T00:14:30;11.30;99.90
59148;DHT22;44930;52.878;6.168;2022-09-17T00:16:55;11.40;99.90
59148;DHT22;44930;52.878;6.168;2022-09-17T00:19:22;11.40;99.90
59148;DHT22;44930;52.878;6.168;2022-09-17T00:21:49;11.70;99.90
59148;DHT22;44930;52.878;6.168;2022-09-17T00:24:16;11.20;99.90
59148;DHT22;44930;52.878;6.168;2022-09-17T00:26:42;11.80;99.90
59148;DHT22;44930;52.878;6.168;2022-09-17T00:29:08;11.30;99.90
59148;DHT22;44930;52.878;6.168;2022-09-17T00:31:34;11.10;99.90
59148;DHT22;44930;52.878;6.168;2022-09-17T00:34:01;11.10;99.90
59148;DHT22;44930;52.878;6.168;2022-09-17T00:36:26;11.20;99.90
59148;DHT22;44930;52.878;6.168;2022-09-17T00:38:54;11.10;99.90
59148;DHT22;44930;52.878;6.168;2022-09-17T00:41:21;11.10;99.90
59148;DHT22;44930;52.878;6.168;2022-09-17T00:43:49;10.90;99.90
59148;DHT22;44930;52.878;6.168;2022-09-17T00:46:32;10.70;99.90
59148;DHT22;44930;52.878;6.168;2022-09-17T00:49:02;10.60;99.90
59148;DHT22;44930;52.878;6.168;2022-09-17T00:51:36;10.20;99.90
59148;DHT22;44930;52.878;6.168;2022-09-17T00:54:03;10.70;99.90
59148;DHT22;44930;52.878;6.168;2022-09-17T00:56:32;10.50;99.90
59148;DHT22;44930;52.878;6.168;2022-09-17T00:59:00;10.90;99.90
59148;DHT22;44930;52.878;6.168;2022-09-17T01:01:26;10.70;99.90
59148;DHT22;44930;52.878;6.168;2022-09-17T01:03:51;10.70;99.90
59148;DHT22;44930;52.878;6.168;2022-09-17T01:06:47;10.50;99.90
59148;DHT22;44930;52.878;6.168;2022-09-17T01:12:12;10.90;99.90
59148;DHT22;44930;52.878;6.168;2022-09-17T01:15:18;10.50;99.90
59148;DHT22;44930;52.878;6.168;2022-09-17T01:23:37;10.90;99.90
59148;DHT22;44930;52.878;6.168;2022-09-17T01:29:00;10.90;99.90
59148;DHT22;44930;52.878;6.168;2022-09-17T01:31:55;11.00;99.90
59148;DHT22;44930;52.878;6.168;2022-09-17T01:40:20;11.20;99.90
59148;DHT22;44930;52.878;6.168;2022-09-17T01:43:07;10.80;99.90
59148;DHT22;44930;52.878;6.168;2022-09-17T01:45:56;10.80;99.90
59148;DHT22;44930;52.878;6.168;2022-09-17T01:48:30;10.80;99.90
59148;DHT22;44930;52.878;6.168;2022-09-17T01:51:06;10.60;99.90
59148;DHT22;44930;52.878;6.168;2022-09-17T01:53:40;10.90;99.90
59148;DHT22;44930;52.878;6.168;2022-09-17T01:56:09;10.60;99.90
59148;DHT22;44930;52.878;6.168;2022-09-17T01:58:42;10.70;99.90
59148;DHT22;44930;52.878;6.168;2022-09-17T02:01:09;10.80;99.90
59148;DHT22;44930;52.878;6.168;2022-09-17T02:06:28;10.70;99.90
59148;DHT22;44930;52.878;6.168;2022-09-17T02:09:01;11.10;99.90
59148;DHT22;44930;52.878;6.168;2022-09-17T02:11:33;10.70;99.90
59148;DHT22;44930;52.878;6.168;2022-09-17T02:14:41;10.70;99.90
59148;DHT22;44930;52.878;6.168;2022-09-17T02:17:15;10.50;99.90
59148;DHT22;44930;52.878;6.168;2022-09-17T02:19:44;10.60;99.90
59148;DHT22;44930;52.878;6.168;2022-09-17T02:24:58;10.20;99.90
59148;DHT22;44930;52.878;6.168;2022-09-17T02:30:11;10.90;99.90
59148;DHT22;44930;52.878;6.168;2022-09-17T02:32:36;10.50;99.90
59148;DHT22;44930;52.878;6.168;2022-09-17T02:35:02;10.70;99.90
59148;DHT22;44930;52.878;6.168;2022-09-17T02:37:28;10.60;99.90
59148;DHT22;44930;52.878;6.168;2022-09-17T02:39:54;10.50;99.90
59148;DHT22;44930;52.878;6.168;2022-09-17T02:47:45;10.40;99.90
59148;DHT22;44930;52.878;6.168;2022-09-17T02:51:27;10.70;99.90
59148;DHT22;44930;52.878;6.168;2022-09-17T02:59:20;10.30;99.90
59148;DHT22;44930;52.878;6.168;2022-09-17T03:02:01;10.50;99.90
59148;DHT22;44930;52.878;6.168;2022-09-17T03:04:28;10.40;99.90
59148;DHT22;44930;52.878;6.168;2022-09-17T03:06:54;10.20;99.90
59148;DHT22;44930;52.878;6.168;2022-09-17T03:09:21;10.30;99.90
59148;DHT22;44930;52.878;6.168;2022-09-17T03:11:46;10.20;99.90
59148;DHT22;44930;52.878;6.168;2022-09-17T03:14:12;10.30;99.90
59148;DHT22;44930;52.878;6.168;2022-09-17T03:16:37;10.40;99.90
59148;DHT22;44930;52.878;6.168;2022-09-17T03:19:03;10.40;99.90
59148;DHT22;44930;52.878;6.168;2022-09-17T03:21:29;10.50;99.90
59148;DHT22;44930;52.878;6.168;2022-09-17T03:23:55;10.20;99.90
59148;DHT22;44930;52.878;6.168;2022-09-17T03:26:21;10.80;99.90
59148;DHT22;44930;52.878;6.168;2022-09-17T03:28:46;10.30;99.90
59148;DHT22;44930;52.878;6.168;2022-09-17T03:31:12;10.30;99.90
59148;DHT22;44930;52.878;6.168;2022-09-17T03:33:37;10.40;99.90
59148;DHT22;44930;52.878;6.168;2022-09-17T03:36:03;10.40;99.90
59148;DHT22;44930;52.878;6.168;2022-09-17T03:38:29;10.20;99.90
59148;DHT22;44930;52.878;6.168;2022-09-17T03:41:02;10.40;99.90
59148;DHT22;44930;52.878;6.168;2022-09-17T03:43:28;10.40;99.90
59148;DHT22;44930;52.878;6.168;2022-09-17T03:45:53;10.40;99.90
59148;DHT22;44930;52.878;6.168;2022-09-17T03:48:19;10.40;99.90
59148;DHT22;44930;52.878;6.168;2022-09-17T03:50:45;10.50;99.90
59148;DHT22;44930;52.878;6.168;2022-09-17T03:53:10;10.40;99.90
59148;DHT22;44930;52.878;6.168;2022-09-17T03:55:39;10.20;99.90
59148;DHT22;44930;52.878;6.168;2022-09-17T03:58:05;10.40;99.90
59148;DHT22;44930;52.878;6.168;2022-09-17T04:00:31;10.50;99.90
59148;DHT22;44930;52.878;6.168;2022-09-17T04:02:57;10.40;99.90
59148;DHT22;44930;52.878;6.168;2022-09-17T04:05:23;10.50;99.90
59148;DHT22;44930;52.878;6.168;2022-09-17T04:07:48;10.30;99.90
59148;DHT22;44930;52.878;6.168;2022-09-17T04:10:14;10.40;99.90
59148;DHT22;44930;52.878;6.168;2022-09-17T04:12:40;10.30;99.90
59148;DHT22;44930;52.878;6.168;2022-09-17T04:15:06;10.70;99.90
59148;DHT22;44930;52.878;6.168;2022-09-17T04:19:58;10.60;99.90
59148;DHT22;44930;52.878;6.168;2022-09-17T04:22:24;10.10;99.90
59148;DHT22;44930;52.878;6.168;2022-09-17T04:24:49;10.30;99.90
59148;DHT22;44930;52.878;6.168;2022-09-17T04:27:15;10.40;99.90
59148;DHT22;44930;52.878;6.168;2022-09-17T04:29:41;10.50;99.90
59148;DHT22;44930;52.878;6.168;2022-09-17T04:32:06;10.20;99.90
59148;DHT22;44930;52.878;6.168;2022-09-17T04:34:32;10.20;99.90
59148;DHT22;44930;52.878;6.168;2022-09-17T04:36:58;10.60;99.90
59148;DHT22;44930;52.878;6.168;2022-09-17T04:39:23;10.50;99.90
59148;DHT22;44930;52.878;6.168;2022-09-17T04:41:49;10.60;99.90
59148;DHT22;44930;52.878;6.168;2022-09-17T04:44:14;10.60;99.90
59148;DHT22;44930;52.878;6.168;2022-09-17T04:46:40;10.30;99.90
59148;DHT22;44930;52.878;6.168;2022-09-17T04:49:05;10.30;99.90
59148;DHT22;44930;52.878;6.168;2022-09-17T04:51:31;10.20;99.90
59148;DHT22;44930;52.878;6.168;2022-09-17T04:53:57;10.70;99.90
59148;DHT22;44930;52.878;6.168;2022-09-17T04:56:22;10.00;99.90
59148;DHT22;44930;52.878;6.168;2022-09-17T04:58:48;10.10;99.90
59148;DHT22;44930;52.878;6.168;2022-09-17T05:01:13;9.90;99.90
59148;DHT22;44930;52.878;6.168;2022-09-17T05:03:43;9.80;99.90
59148;DHT22;44930;52.878;6.168;2022-09-17T05:06:09;10.10;99.90
59148;DHT22;44930;52.878;6.168;2022-09-17T05:08:34;9.60;99.90
59148;DHT22;44930;52.878;6.168;2022-09-17T05:11:00;9.90;99.90
59148;DHT22;44930;52.878;6.168;2022-09-17T05:13:26;9.40;99.90
59148;DHT22;44930;52.878;6.168;2022-09-17T05:15:55;9.60;99.90
59148;DHT22;44930;52.878;6.168;2022-09-17T05:18:21;9.60;99.90
59148;DHT22;44930;52.878;6.168;2022-09-17T05:20:47;9.60;99.90
59148;DHT22;44930;52.878;6.168;2022-09-17T05:23:13;9.60;99.90
59148;DHT22;44930;52.878;6.168;2022-09-17T05:25:39;9.60;99.90
59148;DHT22;44930;52.878;6.168;2022-09-17T05:28:04;9.50;99.90
59148;DHT22;44930;52.878;6.168;2022-09-17T05:30:30;9.30;99.90
59148;DHT22;44930;52.878;6.168;2022-09-17T05:33:03;9.20;99.90
59148;DHT22;44930;52.878;6.168;2022-09-17T05:35:30;9.20;99.90
59148;DHT22;44930;52.878;6.168;2022-09-17T05:38:01;9.60;99.90
59148;DHT22;44930;52.878;6.168;2022-09-17T05:40:27;9.40;99.90
59148;DHT22;44930;52.878;6.168;2022-09-17T05:43:00;9.20;99.90
59148;DHT22;44930;52.878;6.168;2022-09-17T05:45:27;9.00;99.90
59148;DHT22;44930;52.878;6.168;2022-09-17T05:48:00;10.10;99.90
59148;DHT22;44930;52.878;6.168;2022-09-17T05:50:26;9.80;99.90
59148;DHT22;44930;52.878;6.168;2022-09-17T05:52:53;9.80;99.90
59148;DHT22;44930;52.878;6.168;2022-09-17T05:55:19;9.80;99.90
59148;DHT22;44930;52.878;6.168;2022-09-17T05:57:47;10.00;99.90
59148;DHT22;44930;52.878;6.168;2022-09-17T06:00:13;9.80;99.90
59148;DHT22;44930;52.878;6.168;2022-09-17T06:02:39;9.80;99.90
59148;DHT22;44930;52.878;6.168;2022-09-17T06:05:05;9.50;99.90
59148;DHT22;44930;52.878;6.168;2022-09-17T06:07:31;10.20;99.90
59148;DHT22;44930;52.878;6.168;2022-09-17T06:09:58;9.80;99.90
59148;DHT22;44930;52.878;6.168;2022-09-17T06:12:24;9.80;99.90
59148;DHT22;44930;52.878;6.168;2022-09-17T06:14:49;9.90;99.90
59148;DHT22;44930;52.878;6.168;2022-09-17T06:17:15;9.90;99.90
59148;DHT22;44930;52.878;6.168;2022-09-17T06:19:40;9.90;99.90
59148;DHT22;44930;52.878;6.168;2022-09-17T06:22:06;9.90;99.90
59148;DHT22;44930;52.878;6.168;2022-09-17T06:24:32;10.00;99.90
59148;DHT22;44930;52.878;6.168;2022-09-17T06:26:57;9.90;99.90
59148;DHT22;44930;52.878;6.168;2022-09-17T06:29:23;9.90;99.90
59148;DHT22;44930;52.878;6.168;2022-09-17T06:31:49;9.70;99.90
59148;DHT22;44930;52.878;6.168;2022-09-17T06:34:15;9.70;99.90
59148;DHT22;44930;52.878;6.168;2022-09-17T06:36:41;9.90;99.90
59148;DHT22;44930;52.878;6.168;2022-09-17T06:39:06;9.90;99.90
59148;DHT22;44930;52.878;6.168;2022-09-17T06:41:32;10.00;99.90
59148;DHT22;44930;52.878;6.168;2022-09-17T06:43:58;10.10;99.90
59148;DHT22;44930;52.878;6.168;2022-09-17T06:46:24;10.10;99.90
59148;DHT22;44930;52.878;6.168;2022-09-17T06:48:50;10.10;99.90
59148;DHT22;44930;52.878;6.168;2022-09-17T06:51:15;10.20;99.90
59148;DHT22;44930;52.878;6.168;2022-09-17T06:53:41;10.50;99.90
59148;DHT22;44930;52.878;6.168;2022-09-17T06:56:07;10.20;99.90
59148;DHT22;44930;52.878;6.168;2022-09-17T07:01:03;10.20;99.90
59148;DHT22;44930;52.878;6.168;2022-09-17T07:03:29;10.00;99.90
59148;DHT22;44930;52.878;6.168;2022-09-17T07:05:56;10.10;99.90
59148;DHT22;44930;52.878;6.168;2022-09-17T07:08:21;10.00;99.90
59148;DHT22;44930;52.878;6.168;2022-09-17T07:10:47;10.30;99.90
59148;DHT22;44930;52.878;6.168;2022-09-17T07:13:13;10.10;99.90
59148;DHT22;44930;52.878;6.168;2022-09-17T07:15:39;10.30;99.90
59148;DHT22;44930;52.878;6.168;2022-09-17T07:18:11;10.30;99.90
59148;DHT22;44930;52.878;6.168;2022-09-17T07:20:37;10.60;99.90
59148;DHT22;44930;52.878;6.168;2022-09-17T07:23:03;10.50;99.90
59148;DHT22;44930;52.878;6.168;2022-09-17T07:25:29;10.60;99.90
59148;DHT22;44930;52.878;6.168;2022-09-17T07:27:54;10.90;99.90
59148;DHT22;44930;52.878;6.168;2022-09-17T07:30:21;10.70;99.90
59148;DHT22;44930;52.878;6.168;2022-09-17T07:32:46;10.70;99.90
59148;DHT22;44930;52.878;6.168;2022-09-17T07:35:12;11.10;99.90
59148;DHT22;44930;52.878;6.168;2022-09-17T07:37:38;10.80;99.90
59148;DHT22;44930;52.878;6.168;2022-09-17T07:40:04;10.70;99.90
59148;DHT22;44930;52.878;6.168;2022-09-17T07:42:33;11.20;99.90
59148;DHT22;44930;52.878;6.168;2022-09-17T07:44:59;11.10;99.90
59148;DHT22;44930;52.878;6.168;2022-09-17T07:47:25;11.00;99.90
59148;DHT22;44930;52.878;6.168;2022-09-17T07:49:50;11.10;99.90
59148;DHT22;44930;52.878;6.168;2022-09-17T07:52:16;10.70;99.90
59148;DHT22;44930;52.878;6.168;2022-09-17T07:54:41;11.30;99.90
59148;DHT22;44930;52.878;6.168;2022-09-17T07:57:07;11.00;99.90
59148;DHT22;44930;52.878;6.168;2022-09-17T07:59:32;10.80;99.90
59148;DHT22;44930;52.878;6.168;2022-09-17T08:01:58;10.80;99.90
59148;DHT22;44930;52.878;6.168;2022-09-17T08:04:24;10.90;99.90
59148;DHT22;44930;52.878;6.168;2022-09-17T08:06:49;10.80;99.90
59148;DHT22;44930;52.878;6.168;2022-09-17T08:09:16;10.50;99.90
59148;DHT22;44930;52.878;6.168;2022-09-17T08:11:43;11.10;99.90
59148;DHT22;44930;52.878;6.168;2022-09-17T08:14:15;11.20;99.90
59148;DHT22;44930;52.878;6.168;2022-09-17T08:16:40;11.30;99.90
59148;DHT22;44930;52.878;6.168;2022-09-17T08:19:06;11.40;99.90
59148;DHT22;44930;52.878;6.168;2022-09-17T08:21:35;11.50;99.90
59148;DHT22;44930;52.878;6.168;2022-09-17T08:24:00;11.70;99.90
59148;DHT22;44930;52.878;6.168;2022-09-17T08:26:26;11.00;99.90
59148;DHT22;44930;52.878;6.168;2022-09-17T08:28:53;11.40;99.90
59148;DHT22;44930;52.878;6.168;2022-09-17T08:31:24;11.60;99.90
59148;DHT22;44930;52.878;6.168;2022-09-17T08:33:54;11.70;99.90
59148;DHT22;44930;52.878;6.168;2022-09-17T08:36:20;11.80;99.90
59148;DHT22;44930;52.878;6.168;2022-09-17T08:38:50;11.60;99.90
59148;DHT22;44930;52.878;6.168;2022-09-17T08:46:32;11.80;99.90
59148;DHT22;44930;52.878;6.168;2022-09-17T08:49:11;11.70;99.90
59148;DHT22;44930;52.878;6.168;2022-09-17T08:54:44;11.80;99.90
59148;DHT22;44930;52.878;6.168;2022-09-17T08:59:59;11.60;99.90
59148;DHT22;44930;52.878;6.168;2022-09-17T09:10:22;12.10;99.90
59148;DHT22;44930;52.878;6.168;2022-09-17T09:12:54;12.10;99.90
59148;DHT22;44930;52.878;6.168;2022-09-17T09:15:39;11.80;99.90
59148;DHT22;44930;52.878;6.168;2022-09-17T09:18:34;11.40;99.90
59148;DHT22;44930;52.878;6.168;2022-09-17T09:24:21;12.40;99.90
59148;DHT22;44930;52.878;6.168;2022-09-17T09:27:14;12.60;99.90
59148;DHT22;44930;52.878;6.168;2022-09-17T09:34:42;12.30;99.90
59148;DHT22;44930;52.878;6.168;2022-09-17T09:42:29;12.20;99.90
59148;DHT22;44930;52.878;6.168;2022-09-17T09:45:00;12.30;99.90
59148;DHT22;44930;52.878;6.168;2022-09-17T09:47:53;12.30;99.90
59148;DHT22;44930;52.878;6.168;2022-09-17T09:56:05;12.50;99.90
59148;DHT22;44930;52.878;6.168;2022-09-17T09:58:38;12.60;99.90
59148;DHT22;44930;52.878;6.168;2022-09-17T10:01:13;12.20;99.90
59148;DHT22;44930;52.878;6.168;2022-09-17T10:03:41;12.60;99.90
59148;DHT22;44930;52.878;6.168;2022-09-17T10:06:09;12.60;99.90
59148;DHT22;44930;52.878;6.168;2022-09-17T10:11:28;12.30;99.90
59148;DHT22;44930;52.878;6.168;2022-09-17T10:16:48;12.60;99.90
59148;DHT22;44930;52.878;6.168;2022-09-17T10:19:20;12.40;99.90
59148;DHT22;44930;52.878;6.168;2022-09-17T10:21:50;12.20;99.90
59148;DHT22;44930;52.878;6.168;2022-09-17T10:24:27;12.00;99.90
59148;DHT22;44930;52.878;6.168;2022-09-17T10:27:02;11.70;99.90
59148;DHT22;44930;52.878;6.168;2022-09-17T10:29:30;11.60;99.90
59148;DHT22;44930;52.878;6.168;2022-09-17T10:31:56;11.50;99.90
59148;DHT22;44930;52.878;6.168;2022-09-17T10:34:32;11.90;99.90
59148;DHT22;44930;52.878;6.168;2022-09-17T10:36:58;12.00;99.90
59148;DHT22;44930;52.878;6.168;2022-09-17T10:39:36;11.70;99.90
59148;DHT22;44930;52.878;6.168;2022-09-17T10:44:36;12.30;99.90
59148;DHT22;44930;52.878;6.168;2022-09-17T10:47:11;12.60;99.90
59148;DHT22;44930;52.878;6.168;2022-09-17T10:49:48;12.40;99.90
59148;DHT22;44930;52.878;6.168;2022-09-17T10:52:28;12.90;99.90
59148;DHT22;44930;52.878;6.168;2022-09-17T11:06:29;12.80;99.90
59148;DHT22;44930;52.878;6.168;2022-09-17T11:14:37;13.10;99.90
59148;DHT22;44930;52.878;6.168;2022-09-17T11:19:48;13.60;99.90
59148;DHT22;44930;52.878;6.168;2022-09-17T11:33:51;13.50;99.90
59148;DHT22;44930;52.878;6.168;2022-09-17T11:36:22;13.60;99.90
59148;DHT22;44930;52.878;6.168;2022-09-17T11:38:49;13.70;99.90
59148;DHT22;44930;52.878;6.168;2022-09-17T11:41:18;13.70;99.90
59148;DHT22;44930;52.878;6.168;2022-09-17T11:44:07;14.30;99.90
59148;DHT22;44930;52.878;6.168;2022-09-17T11:46:43;14.00;99.90
59148;DHT22;44930;52.878;6.168;2022-09-17T11:49:34;14.30;99.90
59148;DHT22;44930;52.878;6.168;2022-09-17T11:55:16;14.00;99.90
59148;DHT22;44930;52.878;6.168;2022-09-17T11:57:43;13.90;99.90
59148;DHT22;44930;52.878;6.168;2022-09-17T12:00:16;13.30;99.90
59148;DHT22;44930;52.878;6.168;2022-09-17T12:03:04;13.70;99.90
59148;DHT22;44930;52.878;6.168;2022-09-17T12:05:48;13.80;99.90
59148;DHT22;44930;52.878;6.168;2022-09-17T12:11:04;14.10;99.90
59148;DHT22;44930;52.878;6.168;2022-09-17T12:16:25;14.50;99.90
59148;DHT22;44930;52.878;6.168;2022-09-17T12:18:58;14.30;99.90
59148;DHT22;44930;52.878;6.168;2022-09-17T12:21:42;14.90;99.90
59148;DHT22;44930;52.878;6.168;2022-09-17T12:35:06;15.20;99.90
59148;DHT22;44930;52.878;6.168;2022-09-17T12:53:46;15.40;99.90
59148;DHT22;44930;52.878;6.168;2022-09-17T12:56:48;14.80;99.90
59148;DHT22;44930;52.878;6.168;2022-09-17T13:02:01;15.20;99.90
59148;DHT22;44930;52.878;6.168;2022-09-17T13:10:33;14.90;99.90
59148;DHT22;44930;52.878;6.168;2022-09-17T13:19:03;14.70;99.90
59148;DHT22;44930;52.878;6.168;2022-09-17T13:21:59;14.70;99.90
59148;DHT22;44930;52.878;6.168;2022-09-17T13:24:27;15.00;99.90
59148;DHT22;44930;52.878;6.168;2022-09-17T13:26:56;15.10;99.90
59148;DHT22;44930;52.878;6.168;2022-09-17T13:35:10;15.30;99.90
59148;DHT22;44930;52.878;6.168;2022-09-17T13:40:30;15.70;99.90
59148;DHT22;44930;52.878;6.168;2022-09-17T13:43:09;15.50;99.90
59148;DHT22;44930;52.878;6.168;2022-09-17T13:48:25;15.70;99.90
59148;DHT22;44930;52.878;6.168;2022-09-17T13:50:52;15.60;99.90
59148;DHT22;44930;52.878;6.168;2022-09-17T13:53:21;15.40;99.90
59148;DHT22;44930;52.878;6.168;2022-09-17T13:55:58;15.40;99.90
59148;DHT22;44930;52.878;6.168;2022-09-17T13:58:30;15.30;99.90
59148;DHT22;44930;52.878;6.168;2022-09-17T14:30:11;13.30;99.90
59148;DHT22;44930;52.878;6.168;2022-09-17T14:37:41;12.90;99.90
59148;DHT22;44930;52.878;6.168;2022-09-17T14:40:16;12.90;99.90
59148;DHT22;44930;52.878;6.168;2022-09-17T14:42:43;13.00;99.90
59148;DHT22;44930;52.878;6.168;2022-09-17T14:45:16;13.30;99.90
59148;DHT22;44930;52.878;6.168;2022-09-17T14:50:20;13.30;99.90
59148;DHT22;44930;52.878;6.168;2022-09-17T14:52:48;13.30;99.90
59148;DHT22;44930;52.878;6.168;2022-09-17T14:55:20;13.00;99.90
59148;DHT22;44930;52.878;6.168;2022-09-17T14:57:51;13.90;99.90
59148;DHT22;44930;52.878;6.168;2022-09-17T15:00:27;13.80;99.90
59148;DHT22;44930;52.878;6.168;2022-09-17T15:02:56;13.80;99.90
59148;DHT22;44930;52.878;6.168;2022-09-17T15:08:16;14.10;99.90
59148;DHT22;44930;52.878;6.168;2022-09-17T15:11:00;14.40;99.90
59148;DHT22;44930;52.878;6.168;2022-09-17T15:13:34;14.60;99.90
59148;DHT22;44930;52.878;6.168;2022-09-17T15:18:39;15.00;99.90
59148;DHT22;44930;52.878;6.168;2022-09-17T15:21:27;15.40;99.90
59148;DHT22;44930;52.878;6.168;2022-09-17T15:23:57;15.80;99.90
59148;DHT22;44930;52.878;6.168;2022-09-17T15:26:28;16.50;99.90
59148;DHT22;44930;52.878;6.168;2022-09-17T15:28:56;16.50;99.90
59148;DHT22;44930;52.878;6.168;2022-09-17T15:31:22;16.80;99.90
59148;DHT22;44930;52.878;6.168;2022-09-17T15:33:48;17.10;99.90
59148;DHT22;44930;52.878;6.168;2022-09-17T15:38:44;17.50;99.90
59148;DHT22;44930;52.878;6.168;2022-09-17T15:41:32;17.40;99.90
59148;DHT22;44930;52.878;6.168;2022-09-17T15:44:16;16.90;99.90
59148;DHT22;44930;52.878;6.168;2022-09-17T15:46:44;16.20;99.90
59148;DHT22;44930;52.878;6.168;2022-09-17T15:49:32;16.00;99.90
59148;DHT22;44930;52.878;6.168;2022-09-17T15:52:34;15.80;99.90
59148;DHT22;44930;52.878;6.168;2022-09-17T15:55:00;15.50;99.90
59148;DHT22;44930;52.878;6.168;2022-09-17T15:57:27;15.30;99.90
59148;DHT22;44930;52.878;6.168;2022-09-17T15:59:55;15.10;99.90
59148;DHT22;44930;52.878;6.168;2022-09-17T16:07:39;14.80;99.90
59148;DHT22;44930;52.878;6.168;2022-09-17T16:10:05;14.70;99.90
59148;DHT22;44930;52.878;6.168;2022-09-17T16:12:31;14.60;99.90
59148;DHT22;44930;52.878;6.168;2022-09-17T16:14:58;14.40;99.90
59148;DHT22;44930;52.878;6.168;2022-09-17T16:17:40;14.90;99.90
59148;DHT22;44930;52.878;6.168;2022-09-17T16:22:33;14.60;99.90
59148;DHT22;44930;52.878;6.168;2022-09-17T16:24:59;14.40;99.90
59148;DHT22;44930;52.878;6.168;2022-09-17T16:27:27;14.20;99.90
59148;DHT22;44930;52.878;6.168;2022-09-17T16:30:03;13.80;99.90
59148;DHT22;44930;52.878;6.168;2022-09-17T16:32:29;14.10;99.90
59148;DHT22;44930;52.878;6.168;2022-09-17T16:34:55;14.10;99.90
59148;DHT22;44930;52.878;6.168;2022-09-17T16:37:20;14.00;99.90
59148;DHT22;44930;52.878;6.168;2022-09-17T16:39:46;14.00;99.90
59148;DHT22;44930;52.878;6.168;2022-09-17T16:42:11;14.10;99.90
59148;DHT22;44930;52.878;6.168;2022-09-17T16:44:37;14.00;99.90
59148;DHT22;44930;52.878;6.168;2022-09-17T16:47:03;13.90;99.90
59148;DHT22;44930;52.878;6.168;2022-09-17T16:49:28;14.10;99.90
59148;DHT22;44930;52.878;6.168;2022-09-17T16:51:54;14.50;99.90
59148;DHT22;44930;52.878;6.168;2022-09-17T16:54:19;13.80;99.90
59148;DHT22;44930;52.878;6.168;2022-09-17T16:56:45;13.60;99.90
59148;DHT22;44930;52.878;6.168;2022-09-17T16:59:11;13.70;99.90
59148;DHT22;44930;52.878;6.168;2022-09-17T17:01:36;13.70;99.90
59148;DHT22;44930;52.878;6.168;2022-09-17T17:04:02;13.70;99.90
59148;DHT22;44930;52.878;6.168;2022-09-17T17:06:28;13.70;99.90
59148;DHT22;44930;52.878;6.168;2022-09-17T17:08:53;14.20;99.90
59148;DHT22;44930;52.878;6.168;2022-09-17T17:11:19;13.60;99.90
59148;DHT22;44930;52.878;6.168;2022-09-17T17:13:45;13.70;99.90
59148;DHT22;44930;52.878;6.168;2022-09-17T17:16:13;13.40;99.90
59148;DHT22;44930;52.878;6.168;2022-09-17T17:18:41;13.10;99.90
59148;DHT22;44930;52.878;6.168;2022-09-17T17:21:10;13.50;99.90
59148;DHT22;44930;52.878;6.168;2022-09-17T17:23:36;13.30;99.90
59148;DHT22;44930;52.878;6.168;2022-09-17T17:26:02;13.10;99.90
59148;DHT22;44930;52.878;6.168;2022-09-17T17:28:32;12.80;99.90
59148;DHT22;44930;52.878;6.168;2022-09-17T17:30:59;12.50;99.90
59148;DHT22;44930;52.878;6.168;2022-09-17T17:33:25;12.30;99.90
59148;DHT22;44930;52.878;6.168;2022-09-17T17:35:50;12.10;99.90
59148;DHT22;44930;52.878;6.168;2022-09-17T17:38:16;11.70;99.90
59148;DHT22;44930;52.878;6.168;2022-09-17T17:40:42;11.80;99.90
59148;DHT22;44930;52.878;6.168;2022-09-17T17:43:09;11.70;99.90
59148;DHT22;44930;52.878;6.168;2022-09-17T17:45:35;12.10;99.90
59148;DHT22;44930;52.878;6.168;2022-09-17T17:50:27;11.70;99.90
59148;DHT22;44930;52.878;6.168;2022-09-17T17:55:22;11.50;99.90
59148;DHT22;44930;52.878;6.168;2022-09-17T17:57:47;11.40;99.90
59148;DHT22;44930;52.878;6.168;2022-09-17T18:00:18;11.40;99.90
59148;DHT22;44930;52.878;6.168;2022-09-17T18:02:44;11.60;99.90
59148;DHT22;44930;52.878;6.168;2022-09-17T18:05:09;11.40;99.90
59148;DHT22;44930;52.878;6.168;2022-09-17T18:07:36;11.30;99.90
59148;DHT22;44930;52.878;6.168;2022-09-17T18:10:01;11.30;99.90
59148;DHT22;44930;52.878;6.168;2022-09-17T18:12:27;11.20;99.90
59148;DHT22;44930;52.878;6.168;2022-09-17T18:14:52;11.00;99.90
59148;DHT22;44930;52.878;6.168;2022-09-17T18:17:18;11.20;99.90
59148;DHT22;44930;52.878;6.168;2022-09-17T18:19:43;11.20;99.90
59148;DHT22;44930;52.878;6.168;2022-09-17T18:22:09;11.10;99.90
59148;DHT22;44930;52.878;6.168;2022-09-17T18:24:35;11.20;99.90
59148;DHT22;44930;52.878;6.168;2022-09-17T18:27:00;11.20;99.90
59148;DHT22;44930;52.878;6.168;2022-09-17T18:31:52;11.20;99.90
59148;DHT22;44930;52.878;6.168;2022-09-17T18:34:18;11.40;99.90
59148;DHT22;44930;52.878;6.168;2022-09-17T18:36:43;11.30;99.90
59148;DHT22;44930;52.878;6.168;2022-09-17T18:39:11;11.30;99.90
59148;DHT22;44930;52.878;6.168;2022-09-17T18:41:39;11.40;99.90
59148;DHT22;44930;52.878;6.168;2022-09-17T18:44:09;11.30;99.90
59148;DHT22;44930;52.878;6.168;2022-09-17T18:46:35;11.40;99.90
59148;DHT22;44930;52.878;6.168;2022-09-17T18:49:02;11.40;99.90
59148;DHT22;44930;52.878;6.168;2022-09-17T18:51:29;11.50;99.90
59148;DHT22;44930;52.878;6.168;2022-09-17T18:56:28;11.20;99.90
59148;DHT22;44930;52.878;6.168;2022-09-17T18:58:56;11.00;99.90
59148;DHT22;44930;52.878;6.168;2022-09-17T19:01:23;11.30;99.90
59148;DHT22;44930;52.878;6.168;2022-09-17T19:06:19;11.20;99.90
59148;DHT22;44930;52.878;6.168;2022-09-17T19:08:45;11.30;99.90
59148;DHT22;44930;52.878;6.168;2022-09-17T19:11:11;11.20;99.90
59148;DHT22;44930;52.878;6.168;2022-09-17T19:13:41;11.20;99.90
59148;DHT22;44930;52.878;6.168;2022-09-17T19:16:08;11.20;99.90
59148;DHT22;44930;52.878;6.168;2022-09-17T19:18:35;11.30;99.90
59148;DHT22;44930;52.878;6.168;2022-09-17T19:21:10;10.80;99.90
59148;DHT22;44930;52.878;6.168;2022-09-17T19:23:40;10.90;99.90
59148;DHT22;44930;52.878;6.168;2022-09-17T19:26:07;11.20;99.90
59148;DHT22;44930;52.878;6.168;2022-09-17T19:28:33;11.20;99.90
59148;DHT22;44930;52.878;6.168;2022-09-17T19:31:05;11.50;99.90
59148;DHT22;44930;52.878;6.168;2022-09-17T19:33:31;11.20;99.90
59148;DHT22;44930;52.878;6.168;2022-09-17T19:36:01;11.40;99.90
59148;DHT22;44930;52.878;6.168;2022-09-17T19:38:28;11.20;99.90
59148;DHT22;44930;52.878;6.168;2022-09-17T19:41:17;11.30;99.90
59148;DHT22;44930;52.878;6.168;2022-09-17T19:43:44;11.20;99.90
59148;DHT22;44930;52.878;6.168;2022-09-17T19:46:14;11.10;99.90
59148;DHT22;44930;52.878;6.168;2022-09-17T19:51:10;11.20;99.90
59148;DHT22;44930;52.878;6.168;2022-09-17T19:53:35;11.10;99.90
59148;DHT22;44930;52.878;6.168;2022-09-17T19:58:27;11.10;99.90